KTZR

Bolton Field Airport

Columbus, Ohio, USA
METAR KTZR 181350Z 27003KT 3SM BR OVC014 01/M01 A3013
Observed Flight Rules
Jan-18 @ 13:50 UTC (11 minutes ago) Marginal Visual Flight Rules
Wind Visibility Clouds Conditions
270° at 3 knots 3 miles
  • Overcast at 1,400' AGL
  • Mist
Temperatures Readings
Current 1°C / 34°F
Dewpoint -1°C / 30°F
Humidity 87%
Altimeter 30.13" Hg
Pressure 1020.32 hPa
Elevation 276
METAR KTZR 181350Z 27003KT 3SM BR OVC014 01/M01 A3013
Observed Flight Rules
Jan-18 @ 13:50 UTC
(11 minutes ago)
MVFR
Wind Visibility
270° at 3 knots 3 miles
Clouds
  • Overcast at 1,400' AGL
Conditions
  • Mist
Temperature Dewpoint
1°C / 34°F -1°C / 30°F
Humidity Altimeter Pressure
87% 30.13" Hg 1020.32 hPa